Weather - Helsinki Query any day in the database

Current weather  

Weather data for a selected day (2006-01-01 -2020-10-30)
Enter date:     <-     scroll days         ->
day curves
Low temperature°C +13.210:00
High temperature°C +18.416:00
Low wind chill°C 11.309:30
Average temperature°C +15.6 
High wind speed (10 min) m/s 9.008:30
Low pressurehPa 0.015:00
High pressurehPa 999.423:30
Low R.H% 6716:00
High R.H% 9710:00
High precipitation (1h)mm 19.010:00
Total precipitation of the daymm 39.8 
Day weather data as a table
Date Time Temp
°C
Chill
°C
Pressure
hPA
Wind
m/s
Hum
%
Precip
mm
2020-07-01 23:30:00 13.3  12.3  999.4 3.3 84 -
2020-07-01 23:00:00 13.9  12.8  999.2 4.0 81 -
2020-07-01 22:30:00 14.6  13.9  998.8 3.4 79 -
2020-07-01 22:00:00 15.1  14.0  998.5 4.9 76 -
2020-07-01 21:30:00 15.8  14.7  998.2 5.7 74 -
2020-07-01 21:00:00 16.3  15.3  997.7 5.8 77 -
2020-07-01 20:30:00 16.4  15.2  997.4 6.9 79 -
2020-07-01 19:30:00 17.5  16.8  996.7 5.6 78 -
2020-07-01 19:00:00 17.2  16.5  996.3 5.6 80 -
2020-07-01 18:30:00 16.9  16.1  995.9 5.5 82 -
2020-07-01 18:00:00 16.6  16.3  995.7 3.5 89 6.7
2020-07-01 17:30:00 16.8  16.6  995.4 3.3 82 -
2020-07-01 17:00:00 17.6  17.0  995.0 5.5 72 -
2020-07-01 16:30:00 17.2  16.2  994.7 6.9 74 -
2020-07-01 16:00:00 18.4  17.5  994.1 8.3 67 -
2020-07-01 15:30:00 18.0  17.2  994.0 7.1 70 -
2020-07-01 15:00:00 16.5  15.1  0.0 7.8 77 -
2020-07-01 14:30:00 16.8  15.8  993.8 6.2 78 -
2020-07-01 14:00:00 16.5  15.3  993.8 6.9 84 -
2020-07-01 13:30:00 16.5  15.5  993.7 6.1 81 -
2020-07-01 13:00:00 14.7  13.8  993.3 4.0 90 4.3
2020-07-01 12:30:00 14.5  13.5  993.3 4.2 92 -
2020-07-01 12:00:00 16.0  14.6  993.0 7.4 83 -
2020-07-01 11:30:00 15.8  14.2  992.7 8.0 86 -
2020-07-01 11:00:00 15.5  14.4  992.4 5.1 89 2.5
2020-07-01 10:30:00 14.1  13.0  992.4 4.0 94 -
2020-07-01 10:00:00 13.2  11.5  992.6 5.1 97 19.0
2020-07-01 09:30:00 13.2  11.3  992.6 6.1 95 -
2020-07-01 09:00:00 16.6  15.3  992.1 7.4 79 -
2020-07-01 08:30:00 16.4  14.8  992.0 9.0 79 -
2020-07-01 08:00:00 16.3  14.8  992.2 8.2 82 0.8
2020-07-01 07:30:00 15.9  14.6  992.1 6.5 87 -
2020-07-01 07:00:00 15.4  14.0  992.3 6.6 90 0.1
2020-07-01 06:30:00 15.2  13.8  992.1 6.2 91 -
2020-07-01 05:30:00 15.3  14.0  992.2 5.8 89 -
2020-07-01 05:00:00 15.1  13.6  992.2 6.4 89 -
2020-07-01 04:30:00 15.1  13.7  992.2 6.2 90 -
2020-07-01 04:00:00 15.1  13.7  992.2 6.0 90 -
2020-07-01 03:30:00 15.0  13.6  992.3 5.7 91 -
2020-07-01 03:00:00 14.9  13.4  992.4 6.0 92 -
2020-07-01 02:30:00 15.0  13.5  992.5 6.4 91 -
2020-07-01 02:00:00 15.0  13.6  992.4 6.0 93 -
2020-07-01 01:30:00 14.8  13.6  992.6 5.0 94 -
2020-07-01 01:00:00 14.6  13.3  992.9 5.0 94 2.2
2020-07-01 00:30:00 14.2  13.2  993.1 3.8 96 -
2020-07-01 00:00:00 14.1  12.3  993.3 6.5 96 4.2
Unit conversions: